createdAt,value
2019-02-23T00:02:22.190Z,5.72
2019-02-23T00:04:52.362Z,5.68
2019-02-23T00:07:22.552Z,5.61
2019-02-23T00:09:52.762Z,5.54
2019-02-23T00:12:22.837Z,5.49
2019-02-23T00:14:53.107Z,5.44
2019-02-23T00:17:23.320Z,5.37
2019-02-23T00:19:53.545Z,5.33
2019-02-23T00:22:23.751Z,5.29
2019-02-23T00:24:53.885Z,5.22
2019-02-23T00:27:24.023Z,5.18
2019-02-23T00:29:54.157Z,5.13
2019-02-23T00:32:24.295Z,5.09
2019-02-23T00:34:54.456Z,5.03
2019-02-23T00:37:24.600Z,4.98
2019-02-23T00:39:54.717Z,4.93
2019-02-23T00:42:24.968Z,4.88
2019-02-23T00:44:55.133Z,4.83
2019-02-23T00:47:25.378Z,4.79
2019-02-23T00:49:55.440Z,4.73
2019-02-23T00:52:25.601Z,4.68
2019-02-23T00:54:55.676Z,4.65
2019-02-23T00:57:25.976Z,4.59
2019-02-23T00:59:56.215Z,4.56
2019-02-23T01:02:26.446Z,4.53
2019-02-23T01:04:58.235Z,4.50
2019-02-23T01:07:28.460Z,4.45
2019-02-23T01:09:58.757Z,4.43
2019-02-23T01:12:29.103Z,4.37
2019-02-23T01:14:59.371Z,4.36
2019-02-23T01:17:29.679Z,4.34
2019-02-23T01:20:00.096Z,4.30
2019-02-23T01:22:30.452Z,4.28
2019-02-23T01:25:00.844Z,4.26
2019-02-23T01:27:30.976Z,4.21
2019-02-23T01:30:01.131Z,4.18
2019-02-23T01:32:31.444Z,4.14
2019-02-23T01:35:01.669Z,4.12
2019-02-23T01:37:31.908Z,4.09
2019-02-23T01:40:02.068Z,4.08
2019-02-23T01:42:32.241Z,4.03
2019-02-23T01:45:02.431Z,4.01
2019-02-23T01:47:32.716Z,3.99
2019-02-23T01:50:02.976Z,3.96
2019-02-23T01:52:33.181Z,3.93
2019-02-23T01:55:03.344Z,3.89
2019-02-23T01:57:33.476Z,3.86
2019-02-23T02:00:03.743Z,3.83
2019-02-23T02:02:33.994Z,3.81
2019-02-23T02:05:04.125Z,3.79
2019-02-23T02:07:34.356Z,3.76
2019-02-23T02:10:06.098Z,3.72
2019-02-23T02:12:36.242Z,3.68
2019-02-23T02:15:09.713Z,3.64
2019-02-23T02:17:39.981Z,3.64
2019-02-23T02:20:11.694Z,3.60
2019-02-23T02:22:41.994Z,3.59
2019-02-23T02:25:12.851Z,3.56
2019-02-23T02:27:43.156Z,3.51
2019-02-23T02:30:13.466Z,3.49
2019-02-23T02:32:43.691Z,3.48
2019-02-23T02:35:13.932Z,3.44
2019-02-23T02:37:44.084Z,3.42
2019-02-23T02:40:14.307Z,3.40
2019-02-23T02:42:44.398Z,3.38
2019-02-23T02:45:14.738Z,3.36
2019-02-23T02:47:44.894Z,3.33
2019-02-23T02:50:23.905Z,3.31
2019-02-23T02:52:47.280Z,3.29
2019-02-23T02:55:17.504Z,3.27
2019-02-23T02:57:47.651Z,3.27
2019-02-23T03:00:18.072Z,3.26
2019-02-23T03:02:50.659Z,3.24
2019-02-23T03:05:20.885Z,3.23
2019-02-23T03:07:51.071Z,3.22
2019-02-23T03:10:21.279Z,3.18
2019-02-23T03:12:51.441Z,3.16
2019-02-23T03:15:21.599Z,3.13
2019-02-23T03:17:51.743Z,3.12
2019-02-23T03:20:21.954Z,3.08
2019-02-23T03:23:00.160Z,3.06
2019-02-23T03:25:30.258Z,3.08
2019-02-23T03:28:00.302Z,3.06
2019-02-23T03:30:30.520Z,3.06
2019-02-23T03:33:00.690Z,3.05
2019-02-23T03:35:31.104Z,3.03
2019-02-23T03:38:01.368Z,2.99
2019-02-23T03:40:31.633Z,2.98
2019-02-23T03:43:01.942Z,2.95
2019-02-23T03:45:32.151Z,2.93
2019-02-23T03:48:02.486Z,2.92
2019-02-23T03:50:32.661Z,2.92
2019-02-23T03:53:02.922Z,3.01
2019-02-23T03:55:33.142Z,3.09
2019-02-23T03:58:03.596Z,3.20
2019-02-23T04:00:33.851Z,3.28
2019-02-23T04:03:04.124Z,3.34
2019-02-23T04:05:34.241Z,3.41
2019-02-23T04:08:04.638Z,3.48
2019-02-23T04:10:34.737Z,3.55
2019-02-23T04:13:05.009Z,3.60
2019-02-23T04:15:35.277Z,3.67
2019-02-23T04:18:06.889Z,3.73
2019-02-23T04:20:37.077Z,3.78
2019-02-23T04:23:07.381Z,3.83
2019-02-23T04:25:37.641Z,3.87
2019-02-23T04:28:07.871Z,3.90
2019-02-23T04:30:38.046Z,3.92
2019-02-23T04:33:08.358Z,3.96
2019-02-23T04:35:38.485Z,4.00
2019-02-23T04:38:09.828Z,4.06
2019-02-23T04:40:39.961Z,4.10
2019-02-23T04:43:10.119Z,4.13
2019-02-23T04:45:40.307Z,4.15
2019-02-23T04:48:10.414Z,4.14
2019-02-23T04:50:40.527Z,4.15
2019-02-23T04:53:10.737Z,4.18
2019-02-23T04:55:40.942Z,4.22
2019-02-23T04:58:11.235Z,4.24
2019-02-23T05:00:44.739Z,4.25
2019-02-23T05:03:13.416Z,4.28
2019-02-23T05:05:43.583Z,4.29
2019-02-23T05:08:13.767Z,4.30
2019-02-23T05:10:43.867Z,4.33
2019-02-23T05:13:14.016Z,4.35
2019-02-23T05:15:44.207Z,4.38
2019-02-23T05:18:14.347Z,4.41
2019-02-23T05:20:44.564Z,4.42
2019-02-23T05:23:14.903Z,4.45
2019-02-23T05:25:45.192Z,4.46
2019-02-23T05:28:15.315Z,4.50
2019-02-23T05:30:45.650Z,4.52
2019-02-23T05:33:15.889Z,4.53
2019-02-23T05:35:46.038Z,4.56
2019-02-23T05:38:16.316Z,4.57
2019-02-23T05:40:46.459Z,4.58
2019-02-23T05:43:16.600Z,4.60
2019-02-23T05:45:46.809Z,4.64
2019-02-23T05:48:20.330Z,4.67
2019-02-23T05:50:50.486Z,4.69
2019-02-23T05:53:20.559Z,4.72
2019-02-23T05:55:50.632Z,4.72
2019-02-23T05:58:20.865Z,4.75
2019-02-23T06:00:51.016Z,4.75
2019-02-23T06:03:21.472Z,4.75
2019-02-23T06:05:51.679Z,4.74
2019-02-23T06:08:21.968Z,4.73
2019-02-23T06:10:52.059Z,4.74
2019-02-23T06:13:22.611Z,4.75
2019-02-23T06:15:53.181Z,4.75
2019-02-23T06:18:23.631Z,4.79
2019-02-23T06:20:54.211Z,4.79
2019-02-23T06:23:24.812Z,4.83
2019-02-23T06:25:55.306Z,4.80
2019-02-23T06:28:26.141Z,4.83
2019-02-23T06:30:56.725Z,4.81
2019-02-23T06:33:27.196Z,4.82
2019-02-23T06:35:57.663Z,4.86
2019-02-23T06:38:28.197Z,4.88
2019-02-23T06:40:58.720Z,4.89
2019-02-23T06:43:29.154Z,4.92
2019-02-23T06:45:59.658Z,4.96
2019-02-23T06:48:30.300Z,5.00
2019-02-23T06:51:00.799Z,4.99
2019-02-23T06:53:31.157Z,5.05
2019-02-23T06:56:01.669Z,5.09
2019-02-23T06:58:32.289Z,5.11
2019-02-23T07:01:02.740Z,5.11
2019-02-23T07:03:33.368Z,5.11
2019-02-23T07:06:04.034Z,5.10
2019-02-23T07:08:34.511Z,5.09
2019-02-23T07:11:04.952Z,5.10
2019-02-23T07:13:35.905Z,5.12
2019-02-23T07:16:08.781Z,5.11
2019-02-23T07:18:39.396Z,5.17
2019-02-23T07:21:09.932Z,5.17
2019-02-23T07:23:40.467Z,5.15
2019-02-23T07:26:10.972Z,5.18
2019-02-23T07:28:41.514Z,5.20
2019-02-23T07:31:11.654Z,5.20
2019-02-23T07:33:42.009Z,5.25
2019-02-23T07:36:14.822Z,5.25
2019-02-23T07:38:44.017Z,5.26
2019-02-23T07:41:14.285Z,5.29
2019-02-23T07:43:44.568Z,5.32
2019-02-23T07:46:14.914Z,5.39
2019-02-23T07:48:49.750Z,5.44
2019-02-23T07:51:20.264Z,5.47
2019-02-23T07:53:53.797Z,5.51
2019-02-23T07:56:24.133Z,5.58
2019-02-23T07:58:54.374Z,5.64
2019-02-23T08:01:24.685Z,5.70
2019-02-23T08:03:58.920Z,5.74
2019-02-23T08:06:30.225Z,5.78
2019-02-23T08:09:00.552Z,5.83
2019-02-23T08:11:30.835Z,5.89
2019-02-23T08:14:01.070Z,5.93
2019-02-23T08:16:31.306Z,5.97
2019-02-23T08:19:01.545Z,6.04
2019-02-23T08:21:31.848Z,6.08
2019-02-23T08:24:02.078Z,6.10
2019-02-23T08:26:32.260Z,6.04
2019-02-23T08:29:02.420Z,5.95
2019-02-23T08:31:32.696Z,5.92
2019-02-23T08:34:02.917Z,5.91
2019-02-23T08:36:33.186Z,5.87
2019-02-23T08:39:03.674Z,5.83
2019-02-23T08:41:34.050Z,5.82
2019-02-23T08:44:04.403Z,5.77
2019-02-23T08:46:34.711Z,5.75
2019-02-23T08:49:04.966Z,5.74
2019-02-23T08:51:35.231Z,5.75
2019-02-23T08:54:05.511Z,5.74
2019-02-23T08:56:35.858Z,5.74
2019-02-23T08:59:06.789Z,5.77
2019-02-23T09:01:37.048Z,5.78
2019-02-23T09:04:07.398Z,5.81
2019-02-23T09:06:37.681Z,5.83
2019-02-23T09:09:09.930Z,5.84
2019-02-23T09:11:40.093Z,5.85
2019-02-23T09:14:15.849Z,5.85
2019-02-23T09:16:45.944Z,5.87
2019-02-23T09:19:23.613Z,5.90
2019-02-23T09:22:00.949Z,5.98
2019-02-23T09:24:37.617Z,6.08
2019-02-23T09:27:07.900Z,6.12
2019-02-23T09:29:44.781Z,6.16
2019-02-23T09:32:17.277Z,6.21
2019-02-23T09:34:47.530Z,6.24
2019-02-23T09:37:20.669Z,6.31
2019-02-23T09:39:51.156Z,6.40
2019-02-23T09:42:21.400Z,6.48
2019-02-23T09:44:51.746Z,6.58
2019-02-23T09:47:24.622Z,6.70
2019-02-23T09:49:54.839Z,6.78
2019-02-23T09:52:25.256Z,6.84
2019-02-23T09:54:56.650Z,6.91
2019-02-23T09:57:26.835Z,6.97
2019-02-23T09:59:56.959Z,7.03
2019-02-23T10:02:30.215Z,7.08
2019-02-23T10:05:00.492Z,7.13
2019-02-23T10:07:30.753Z,7.21
2019-02-23T10:10:00.996Z,7.29
2019-02-23T10:12:37.717Z,7.38
2019-02-23T10:15:08.456Z,7.46
2019-02-23T10:17:38.724Z,7.55
2019-02-23T10:20:09.965Z,7.60
2019-02-23T10:22:40.201Z,7.64
2019-02-23T10:25:10.508Z,7.67
2019-02-23T10:27:41.897Z,7.71
2019-02-23T10:30:13.833Z,7.76
2019-02-23T10:32:44.092Z,7.82
2019-02-23T10:35:15.664Z,7.89
2019-02-23T10:37:45.998Z,7.99
2019-02-23T10:40:19.119Z,8.05
2019-02-23T10:42:49.271Z,8.09
2019-02-23T10:45:19.473Z,8.14
2019-02-23T10:47:50.325Z,8.21
2019-02-23T10:50:22.934Z,8.27
2019-02-23T10:52:53.223Z,8.32
2019-02-23T10:55:26.382Z,8.36
2019-02-23T10:57:56.681Z,8.45
2019-02-23T11:00:27.079Z,8.53
2019-02-23T11:02:57.384Z,8.63
2019-02-23T11:05:27.836Z,8.72
2019-02-23T11:07:58.282Z,8.81
2019-02-23T11:10:28.625Z,8.86
2019-02-23T11:12:58.809Z,8.93
2019-02-23T11:15:29.230Z,8.97
2019-02-23T11:17:59.639Z,9.00
2019-02-23T11:20:30.952Z,9.00
2019-02-23T11:23:01.464Z,9.02
2019-02-23T11:25:31.749Z,9.03
2019-02-23T11:28:02.084Z,9.06
2019-02-23T11:30:32.420Z,9.12
2019-02-23T11:33:02.871Z,9.16
2019-02-23T11:35:35.160Z,9.21
2019-02-23T11:38:06.741Z,9.25
2019-02-23T11:40:36.977Z,9.28
2019-02-23T11:43:07.340Z,9.31
2019-02-23T11:45:37.754Z,9.35
2019-02-23T11:48:08.034Z,9.42
2019-02-23T11:50:41.240Z,9.52
2019-02-23T11:53:11.456Z,9.59
2019-02-23T11:55:41.770Z,9.66
2019-02-23T11:58:12.184Z,9.72
2019-02-23T12:00:42.511Z,9.80
2019-02-23T12:03:13.001Z,9.88
2019-02-23T12:05:43.430Z,9.97
2019-02-23T12:08:13.825Z,10.05
2019-02-23T12:10:44.109Z,10.14
2019-02-23T12:13:14.374Z,10.22
2019-02-23T12:15:44.704Z,10.36
2019-02-23T12:18:15.156Z,10.49
2019-02-23T12:20:50.800Z,10.57
2019-02-23T12:23:20.896Z,10.64
2019-02-23T12:25:51.321Z,10.73
2019-02-23T12:28:23.115Z,10.84
2019-02-23T12:30:53.437Z,10.98
2019-02-23T12:33:26.370Z,11.08
2019-02-23T12:35:58.568Z,11.19
2019-02-23T12:38:29.090Z,11.31
2019-02-23T12:40:59.357Z,11.45
2019-02-23T12:43:29.779Z,11.59
2019-02-23T12:46:00.103Z,11.68
2019-02-23T12:48:30.606Z,11.78
2019-02-23T12:51:00.827Z,11.87
2019-02-23T12:53:31.121Z,11.92
2019-02-23T12:56:01.319Z,12.02
2019-02-23T12:58:31.608Z,12.10
2019-02-23T13:01:01.956Z,12.14
2019-02-23T13:03:32.395Z,12.21
2019-02-23T13:06:02.783Z,12.29
2019-02-23T13:09:20.164Z,12.39
2019-02-23T13:12:03.130Z,12.81
2019-02-23T13:15:01.925Z,14.01
2019-02-23T13:18:47.773Z,14.99
2019-02-23T13:21:50.263Z,15.93
2019-02-23T13:24:53.028Z,17.03
2019-02-23T13:27:55.420Z,17.55
2019-02-23T13:31:10.936Z,17.96
2019-02-23T13:34:36.479Z,18.47
2019-02-23T13:37:32.181Z,19.00
2019-02-23T13:41:10.240Z,19.61
2019-02-23T13:44:19.421Z,19.94
2019-02-23T13:47:55.035Z,20.26
2019-02-23T13:51:30.409Z,20.53
2019-02-23T13:54:38.581Z,20.68
2019-02-23T13:57:26.154Z,20.71
2019-02-23T14:00:48.290Z,20.40
2019-02-23T14:04:29.775Z,19.08
2019-02-23T14:08:00.613Z,17.51
2019-02-23T14:11:46.381Z,16.28
2019-02-23T14:15:21.860Z,15.43
2019-02-23T14:19:04.355Z,14.85
2019-02-23T14:22:23.840Z,14.42
2019-02-23T14:25:57.258Z,14.08
2019-02-23T14:29:20.567Z,13.80
2019-02-23T14:32:55.815Z,13.58
2019-02-23T14:36:38.622Z,13.46
2019-02-23T14:39:42.698Z,13.34
2019-02-23T14:43:12.330Z,13.15
2019-02-23T14:46:36.268Z,13.06
2019-02-23T14:50:09.392Z,12.99
2019-02-23T14:53:34.986Z,12.94
2019-02-23T14:56:49.062Z,12.90
2019-02-23T15:00:01.571Z,12.85
2019-02-23T15:03:58.163Z,12.82
2019-02-23T15:07:25.330Z,12.79
2019-02-23T15:10:24.846Z,12.73
2019-02-23T15:13:37.762Z,12.71
2019-02-23T15:17:10.905Z,12.72
2019-02-23T15:20:29.465Z,12.70
2019-02-23T15:23:59.692Z,12.66
2019-02-23T15:27:03.480Z,12.68
2019-02-23T15:30:26.144Z,12.64
2019-02-23T15:33:48.843Z,12.89
2019-02-23T15:37:24.535Z,12.81
2019-02-23T15:40:34.668Z,12.73
2019-02-23T15:43:38.355Z,12.66
2019-02-23T15:47:00.946Z,12.58
2019-02-23T15:49:35.996Z,12.51
2019-02-23T15:52:08.772Z,12.45
2019-02-23T15:54:39.457Z,12.40
2019-02-23T15:57:13.322Z,12.35
2019-02-23T15:59:46.098Z,12.28
2019-02-23T16:02:16.473Z,12.20
2019-02-23T16:04:47.242Z,12.13
2019-02-23T16:07:17.746Z,12.06
2019-02-23T16:09:48.392Z,11.98
2019-02-23T16:12:21.187Z,11.87
2019-02-23T16:14:51.527Z,11.77
2019-02-23T16:17:22.051Z,11.68
2019-02-23T16:19:52.450Z,11.61
2019-02-23T16:22:22.700Z,11.51
2019-02-23T16:24:52.843Z,11.44
2019-02-23T16:27:26.117Z,11.36
2019-02-23T16:29:58.946Z,11.35
2019-02-23T16:32:31.592Z,11.36
2019-02-23T16:35:01.805Z,11.31
2019-02-23T16:37:34.775Z,11.19
2019-02-23T16:40:05.160Z,11.10
2019-02-23T16:42:35.745Z,10.95
2019-02-23T16:45:07.657Z,10.83
2019-02-23T16:47:38.191Z,10.72
2019-02-23T16:50:09.769Z,10.59
2019-02-23T16:52:40.287Z,10.49
2019-02-23T16:55:11.943Z,10.36
2019-02-23T16:57:42.597Z,10.23
2019-02-23T17:00:13.172Z,10.12
2019-02-23T17:02:43.611Z,10.00
2019-02-23T17:05:14.061Z,9.88
2019-02-23T17:07:44.791Z,9.78
2019-02-23T17:10:15.307Z,9.66
2019-02-23T17:12:46.321Z,9.55
2019-02-23T17:15:17.026Z,9.43
2019-02-23T17:17:47.793Z,9.37
2019-02-23T17:20:18.813Z,9.24
2019-02-23T17:22:49.430Z,9.11
2019-02-23T17:25:19.980Z,9.06
2019-02-23T17:27:52.489Z,8.96
2019-02-23T17:30:23.247Z,8.89
2019-02-23T17:32:53.888Z,8.79
2019-02-23T17:35:24.937Z,8.70
2019-02-23T17:37:55.478Z,8.64
2019-02-23T17:40:25.980Z,8.52
2019-02-23T17:42:56.528Z,8.46
2019-02-23T17:45:26.683Z,8.39
2019-02-23T17:47:56.754Z,8.33
2019-02-23T17:50:26.849Z,8.28
2019-02-23T17:52:57.097Z,8.21
2019-02-23T17:55:27.303Z,8.13
2019-02-23T17:57:57.471Z,8.08
2019-02-23T18:00:27.550Z,8.03
2019-02-23T18:02:57.761Z,7.96
2019-02-23T18:05:28.490Z,7.88
2019-02-23T18:07:58.627Z,7.83
2019-02-23T18:10:28.794Z,7.79
2019-02-23T18:12:58.916Z,7.74
2019-02-23T18:15:29.179Z,7.69
2019-02-23T18:17:59.401Z,7.62
2019-02-23T18:20:29.671Z,7.55
2019-02-23T18:22:59.758Z,7.51
2019-02-23T18:25:29.940Z,7.45
2019-02-23T18:28:00.335Z,7.40
2019-02-23T18:30:30.615Z,7.34
2019-02-23T18:33:00.763Z,7.27
2019-02-23T18:35:31.064Z,7.22
2019-02-23T18:38:01.210Z,7.19
2019-02-23T18:40:31.447Z,7.17
2019-02-23T18:43:01.594Z,7.16
2019-02-23T18:45:31.963Z,7.14
2019-02-23T18:48:02.493Z,7.10
2019-02-23T18:50:33.126Z,7.11
2019-02-23T18:53:03.644Z,7.11
2019-02-23T18:55:40.808Z,7.09
2019-02-23T18:58:07.089Z,7.07
2019-02-23T19:00:37.784Z,7.04
2019-02-23T19:03:08.311Z,7.03
2019-02-23T19:05:38.723Z,6.99
2019-02-23T19:08:09.280Z,6.95
2019-02-23T19:10:39.837Z,6.93
2019-02-23T19:13:10.540Z,6.89
2019-02-23T19:15:41.454Z,6.85
2019-02-23T19:18:12.244Z,6.81
2019-02-23T19:20:42.725Z,6.75
2019-02-23T19:23:14.871Z,6.72
2019-02-23T19:25:45.444Z,6.65
2019-02-23T19:28:15.926Z,6.62
2019-02-23T19:30:47.079Z,6.59
2019-02-23T19:33:18.533Z,6.56
2019-02-23T19:35:50.815Z,6.50
2019-02-23T19:38:21.662Z,6.45
2019-02-23T19:40:52.466Z,6.39
2019-02-23T19:43:22.906Z,6.32
2019-02-23T19:45:55.370Z,6.27
2019-02-23T19:48:26.229Z,6.21
2019-02-23T19:51:02.398Z,6.14
2019-02-23T19:53:33.023Z,6.07
2019-02-23T19:56:03.451Z,6.03
2019-02-23T19:58:33.972Z,6.01
2019-02-23T20:01:04.586Z,6.02
2019-02-23T20:06:31.675Z,6.18
2019-02-23T20:09:02.192Z,6.07
2019-02-23T20:11:32.746Z,6.01
2019-02-23T20:14:03.341Z,5.96
2019-02-23T20:16:33.928Z,5.97
2019-02-23T20:19:05.006Z,5.96
2019-02-23T20:21:35.769Z,5.93
2019-02-23T20:24:07.053Z,5.90
2019-02-23T20:29:09.289Z,5.78
2019-02-23T20:31:40.016Z,5.75
2019-02-23T20:34:10.773Z,5.70
2019-02-23T20:36:41.509Z,5.61
2019-02-23T20:39:12.145Z,5.58
2019-02-23T20:41:42.655Z,5.53
2019-02-23T20:44:13.404Z,5.49
2019-02-23T20:46:43.992Z,5.45
2019-02-23T20:49:14.577Z,5.43
2019-02-23T20:51:45.178Z,5.40
2019-02-23T20:54:15.720Z,5.36
2019-02-23T20:56:46.210Z,5.31
2019-02-23T20:59:16.773Z,5.27
2019-02-23T21:01:47.301Z,5.22
2019-02-23T21:04:17.923Z,5.16
2019-02-23T21:06:48.363Z,5.15
2019-02-23T21:09:18.981Z,5.08
2019-02-23T21:11:49.471Z,5.03
2019-02-23T21:14:20.021Z,4.94
2019-02-23T21:16:50.480Z,4.89
2019-02-23T21:19:21.023Z,4.83
2019-02-23T21:21:51.520Z,4.77
2019-02-23T21:24:21.928Z,4.73
2019-02-23T21:26:52.380Z,4.66
2019-02-23T21:29:22.909Z,4.67
2019-02-23T21:31:53.387Z,4.66
2019-02-23T21:34:23.890Z,4.63
2019-02-23T21:36:54.420Z,4.65
2019-02-23T21:39:24.941Z,4.63
2019-02-23T21:41:55.659Z,4.62
2019-02-23T21:44:26.173Z,4.60
2019-02-23T21:46:56.801Z,4.55
2019-02-23T21:49:27.738Z,4.48
2019-02-23T21:51:58.372Z,4.43
2019-02-23T21:54:29.005Z,4.36
2019-02-23T21:56:59.586Z,4.27
2019-02-23T21:59:30.085Z,4.25
2019-02-23T22:02:00.574Z,4.26
2019-02-23T22:04:31.259Z,4.17
2019-02-23T22:07:01.936Z,4.17
2019-02-23T22:09:32.461Z,4.11
2019-02-23T22:12:02.936Z,4.07
2019-02-23T22:14:33.619Z,4.01
2019-02-23T22:17:03.965Z,3.96
2019-02-23T22:19:34.261Z,3.91
2019-02-23T22:22:04.533Z,3.87
2019-02-23T22:24:34.783Z,3.81
2019-02-23T22:27:05.070Z,3.73
2019-02-23T22:29:35.353Z,3.70
2019-02-23T22:32:05.739Z,3.63
2019-02-23T22:34:36.068Z,3.59
2019-02-23T22:37:07.168Z,3.55
2019-02-23T22:39:37.524Z,3.52
2019-02-23T22:42:07.844Z,3.49
2019-02-23T22:44:38.151Z,3.46
2019-02-23T22:47:08.470Z,3.45
2019-02-23T22:49:38.742Z,3.45
2019-02-23T22:52:09.041Z,3.43
2019-02-23T22:54:39.297Z,3.40
2019-02-23T22:57:09.507Z,3.36
2019-02-23T22:59:39.676Z,3.33
2019-02-23T23:02:09.955Z,3.29
2019-02-23T23:04:40.159Z,3.25
2019-02-23T23:07:10.505Z,3.21
2019-02-23T23:09:40.813Z,3.20
2019-02-23T23:12:11.209Z,3.20
2019-02-23T23:14:41.501Z,3.22
2019-02-23T23:17:11.868Z,3.25
2019-02-23T23:19:42.161Z,3.28
2019-02-23T23:22:12.380Z,3.30
2019-02-23T23:24:42.608Z,3.29
2019-02-23T23:27:12.866Z,3.33
2019-02-23T23:29:43.206Z,3.36
2019-02-23T23:32:13.452Z,3.40
2019-02-23T23:34:43.630Z,3.42
2019-02-23T23:37:13.903Z,3.41
2019-02-23T23:39:44.206Z,3.42
2019-02-23T23:42:14.426Z,3.41
2019-02-23T23:44:44.817Z,3.40
2019-02-23T23:47:15.079Z,3.36
2019-02-23T23:49:45.391Z,3.32
2019-02-23T23:52:15.713Z,3.29
2019-02-23T23:54:45.967Z,3.27
2019-02-23T23:57:16.112Z,3.25
2019-02-23T23:59:46.424Z,3.24
